Manistee, MI

7:59 AM EST on December 20, 2014 (GMT -0500)
Manistee County-Blacker | Change Station
CLOSE
Current Station
Airport
Location: Manistee,
Elevation: 620 ft
Nearby Weather Stations

Elev 620 ft 44.27 °N, 86.25 °W | Updated 4 minutes ago

Mostly Cloudy
Mostly Cloudy
19 °F
Feels Like 13 °F
N
5
Wind Variable Wind from ESE

Today
High -- | Low -- °F
--% Chance of Precip.
Yesterday
High -- | Low -- °F
Precip. -- in
8:16 AM 5:08 PM
Waning Crescent, 3% visible
Pressure 30.29 in
Visibility 10.0 miles
Clouds Mostly Cloudy 3700 ft
Windchill 13 °F
Dew Point 16 °F
Humidity 86%
Rainfall 0.00 in
Snow Depth Not available.
UV 0 out of 12
Pollen .10 out of 12
Air Quality Not available.
Flu Activity Not available.
METAR KMBL 201255Z AUTO 12004KT 10SM BKN037 M07/M09 A3029 RMK AO1

More Conditions Fewer Conditions

Pressure 30.29 in
Visibility 10.0 miles
Clouds Mostly Cloudy 3700 ft
Windchill 13 °F
Dew Point 16 °F
Humidity 86%
Rainfall 0.00 in
Snow Depth Not available.
UV 0 out of 12
Pollen .10 out of 12
Air Quality Not available.
Flu Activity Not available.
METAR KMBL 201255Z AUTO 12004KT 10SM BKN037 M07/M09 A3029 RMK AO1

More Conditions Fewer Conditions

Nowcast | as of 7:00 am EST on December 20, 2014

At 8 am...mostly cloudy. Temperature 25. East winds 5 mph. At 10 am...partly cloudy. Temperature 26. Southeast winds 6 mph. At 12 PM...partly cloudy. Temperature 29. South winds 5 mph. At 2 PM...partly cloudy. Temperature 31. Light winds.

×

10-Day Weather Forecast

Almanac

Astronomy

Dec. 20, 2014 Rise Set
Actual Time
Civil Twilight
Nautical Twilight
Astronomical Twilight
Moon
Length of Visible Light
Length of Day
Tomorrow will be .
, % of the Moon is Illuminated

Today's Extremes

State Highs State Lows

Community

WunderPhotos

Upload Photos

1,779,163 photos uploaded!

WunderBlogs® & News

Nearby

Air Quality

  Air Quality AQ Index Pollutant
Not available.

Snow Depth

Station Depth Elevation

Earthquake Activity

City Distance Mag. Time & Date
Minimum magnitude displayed is 2.5.

Coastal Water Temperatures

Place Temperature

Nearby Weather Stations